FAQR weather

CLOSED Potgietersrus Airport
Potgietersus, Limpopo, South Africa

Public forecast

Using degrees Celsius for public forecast. Weather courtesy of forecast.io.

Closest aviation weather report (METAR) to Potgietersrus Airport

Closest report is Polokwane International Airport, 35.0 nm (64.7 km) NE. Retrieved 2020/06/05 02:00 UTC (1 hour ago):

FAPP 050200Z AUTO 18003KT //// // ////// 06/04 Q1026

Closest aviation forecast (TAF) to Potgietersrus Airport

Forecast is more than 12 hours old.

Closest forecast is Polokwane International Airport, 35.0 nm (64.7 km) NE. Retrieved 2017/06/05 04:55 UTC (3 years ago):

TAF FAPP 050300Z 0504/0515 16005KT CAVOK BECMG 0508/0510 06008KT TX21/0513ZTN08/0504Z